LIBV

Details ICAO LIBV
Name GIOIA DEL COLLE
Region Italy
Timezone Europe/Rome (UTC+2.0)
Plans Departing 4
Arriving 13
Stats Elevation 1,187 ft / 362 m (AMSL)
Location 40.767792° 16.933417°
Runways 2
Magnetic Variation 3.783° E
Sunrise 2018-05-27 03:27:21 UTC / 2018-05-27 05:27:21 Local
Sunset 2018-05-27 18:14:21 UTC / 2018-05-27 20:14:21 Local
Advertisement - Login to hide

Runways

ID Width Length Bearing (true) Bearing (mag) Surface Threshold Offset Overrun Length
14L 98 ft / 30 m 9,869 ft / 3,008 m 140.94° 137.16° Asphalt 390 ft / 119 m 154 ft / 47 m
14R 148 ft / 45 m 9,916 ft / 3,023 m 141.16° 137.38° Asphalt 677 ft / 206 m 1,056 ft / 322 m
32L 148 ft / 45 m 9,916 ft / 3,023 m 321.17° 317.39° Asphalt 285 ft / 87 m 166 ft / 51 m
32R 98 ft / 30 m 9,869 ft / 3,008 m 320.95° 317.17° Asphalt 392 ft / 119 m 41 ft / 13 m

Map

Weather


0- 5 10 15 20 25 30 35+ Temperature / ° C

Clouds and Precipitation
Forecast for 2018-05-27 06:00 UTC. Updated 21 minutes ago

Ground ~20,000 ft ~40,000 ft Winds

METAR

LIBV 270455Z 33006KT CAVOK 20/14 Q1020 RMK SCT SCT200 VIS MIN 9999 WIND THR32 36008KT WIND THR14 33008KT BLU

TAF

Not found

Frequencies

Tower 122.45 MHz TWR
Approach 122.10 MHz APP
Tower 122.10 MHz TWR
Approach 130.65 MHz APP
Warning: Do not use this data for real-world aviation or navigation. No guarantee of current accuracy is given.